createdAt,value
2022-10-23T00:01:19.324Z,11.80
2022-10-23T00:03:46.773Z,12.30
2022-10-23T00:06:14.629Z,11.80
2022-10-23T00:08:42.103Z,12.20
2022-10-23T00:11:11.493Z,11.90
2022-10-23T00:13:38.766Z,12.10
2022-10-23T00:16:06.085Z,12.90
2022-10-23T00:18:33.633Z,14.60
2022-10-23T00:21:00.717Z,12.00
2022-10-23T00:23:27.527Z,11.50
2022-10-23T00:35:43.274Z,11.70
2022-10-23T00:38:11.142Z,11.60
2022-10-23T00:40:39.541Z,11.70
2022-10-23T00:43:11.308Z,11.60
2022-10-23T00:45:38.021Z,12.30
2022-10-23T00:48:04.992Z,12.00
2022-10-23T00:50:32.970Z,14.60
2022-10-23T00:53:02.338Z,12.50
2022-10-23T00:55:30.609Z,11.70
2022-10-23T01:00:47.455Z,13.00
2022-10-23T01:03:16.295Z,12.40
2022-10-23T01:05:58.441Z,12.60
2022-10-23T01:08:50.321Z,11.60
2022-10-23T01:11:35.026Z,14.70
2022-10-23T01:14:08.235Z,12.00
2022-10-23T01:21:43.539Z,11.70
2022-10-23T01:24:51.199Z,11.40
2022-10-23T01:27:22.281Z,11.40
2022-10-23T01:29:59.241Z,12.60
2022-10-23T01:35:05.835Z,11.50
2022-10-23T01:37:51.424Z,11.60
2022-10-23T01:40:44.234Z,12.40
2022-10-23T01:43:38.543Z,11.40
2022-10-23T01:46:09.478Z,12.10
2022-10-23T01:48:38.797Z,14.30
2022-10-23T01:51:09.770Z,11.40
2022-10-23T01:53:41.616Z,14.40
2022-10-23T01:56:14.326Z,13.30
2022-10-23T01:58:45.501Z,11.40
2022-10-23T02:01:14.911Z,12.30
2022-10-23T02:03:49.834Z,12.00
2022-10-23T02:06:17.385Z,12.40
2022-10-23T02:08:44.296Z,12.10
2022-10-23T02:11:15.291Z,12.20
2022-10-23T02:13:51.513Z,11.30
2022-10-23T02:16:44.889Z,11.00
2022-10-23T02:19:41.137Z,11.10
2022-10-23T02:22:23.874Z,11.30
2022-10-23T02:24:55.886Z,11.20
2022-10-23T02:27:50.851Z,12.60
2022-10-23T02:30:20.117Z,11.30
2022-10-23T02:32:58.860Z,11.20
2022-10-23T02:35:26.188Z,13.10
2022-10-23T02:38:01.895Z,11.00
2022-10-23T02:40:40.999Z,12.10
2022-10-23T02:43:13.761Z,11.10
2022-10-23T02:46:10.245Z,11.20
2022-10-23T02:48:47.846Z,12.10
2022-10-23T02:51:32.507Z,11.20
2022-10-23T02:54:22.850Z,11.10
2022-10-23T02:57:04.335Z,12.00
2022-10-23T02:59:40.545Z,10.90
2022-10-23T03:02:16.980Z,10.90
2022-10-23T03:04:45.173Z,11.20
2022-10-23T03:07:13.605Z,11.10
2022-10-23T03:09:41.900Z,11.10
2022-10-23T03:12:08.629Z,11.60
2022-10-23T03:14:36.920Z,12.00
2022-10-23T03:17:04.712Z,11.10
2022-10-23T03:19:31.328Z,11.00
2022-10-23T03:24:25.883Z,10.80
2022-10-23T03:29:29.039Z,10.90
2022-10-23T03:31:55.769Z,10.80
2022-10-23T03:34:22.520Z,11.00
2022-10-23T03:36:49.246Z,10.80
2022-10-23T03:39:16.876Z,10.80
2022-10-23T03:41:43.918Z,13.80
2022-10-23T03:44:10.557Z,11.90
2022-10-23T03:46:37.237Z,11.60
2022-10-23T03:49:04.382Z,11.10
2022-10-23T03:51:31.052Z,10.40
2022-10-23T03:53:57.755Z,10.80
2022-10-23T03:58:51.732Z,12.90
2022-10-23T04:03:46.207Z,12.80
2022-10-23T04:06:15.157Z,10.70
2022-10-23T04:08:44.200Z,11.10
2022-10-23T04:13:45.669Z,11.00
2022-10-23T04:18:43.004Z,11.40
2022-10-23T04:21:11.006Z,11.00
2022-10-23T04:23:38.844Z,11.20
2022-10-23T04:26:10.878Z,14.50
2022-10-23T04:31:04.851Z,11.20
2022-10-23T04:33:31.531Z,10.90
2022-10-23T04:38:26.092Z,13.60
2022-10-23T04:40:52.780Z,12.10
2022-10-23T04:43:21.740Z,11.00
2022-10-23T04:45:49.388Z,11.00
2022-10-23T04:48:16.082Z,11.70
2022-10-23T04:53:53.600Z,11.60
2022-10-23T04:59:03.001Z,11.20
2022-10-23T05:06:26.031Z,11.30
2022-10-23T05:09:09.791Z,11.10
2022-10-23T05:12:15.160Z,13.70
2022-10-23T05:17:20.996Z,11.00
2022-10-23T05:19:53.275Z,12.20
2022-10-23T05:22:26.715Z,11.40
2022-10-23T05:27:25.823Z,11.00
2022-10-23T05:32:27.689Z,12.30
2022-10-23T05:34:55.294Z,11.00
2022-10-23T05:37:25.983Z,12.50
2022-10-23T05:42:29.466Z,14.80
2022-10-23T05:53:31.587Z,11.50
2022-10-23T05:56:11.913Z,11.20
2022-10-23T05:58:47.214Z,14.60
2022-10-23T06:01:34.475Z,11.70
2022-10-23T06:04:05.813Z,14.00
2022-10-23T06:06:58.922Z,11.10
2022-10-23T06:09:25.638Z,13.10
2022-10-23T06:11:56.850Z,11.40
2022-10-23T06:14:23.748Z,12.30
2022-10-23T06:16:51.911Z,11.50
2022-10-23T06:21:49.930Z,11.20
2022-10-23T06:24:17.335Z,11.50
2022-10-23T06:29:42.667Z,11.30
2022-10-23T06:34:37.493Z,13.80
2022-10-23T06:37:06.901Z,11.40
2022-10-23T06:40:00.100Z,12.40
2022-10-23T06:42:52.089Z,14.70
2022-10-23T06:45:37.448Z,11.20
2022-10-23T06:48:13.332Z,12.20
2022-10-23T06:51:08.017Z,11.40
2022-10-23T06:53:41.314Z,11.70
2022-10-23T06:56:21.325Z,11.60
2022-10-23T07:06:12.672Z,12.20
2022-10-23T07:11:25.708Z,12.70
2022-10-23T07:13:53.739Z,14.10
2022-10-23T07:16:22.912Z,11.90
2022-10-23T07:18:58.743Z,11.90
2022-10-23T07:21:34.631Z,13.00
2022-10-23T07:24:19.911Z,12.00
2022-10-23T07:26:46.637Z,13.00
2022-10-23T07:29:14.308Z,12.70
2022-10-23T07:34:32.012Z,14.10
2022-10-23T07:39:46.657Z,12.90
2022-10-23T07:42:13.856Z,12.10
2022-10-23T07:44:41.463Z,12.30
2022-10-23T07:47:08.221Z,12.60
2022-10-23T07:49:35.455Z,15.00
2022-10-23T07:54:40.453Z,12.80
2022-10-23T07:57:21.157Z,13.80
2022-10-23T07:59:58.605Z,15.50
2022-10-23T08:02:25.301Z,13.10
2022-10-23T08:04:52.700Z,12.80
2022-10-23T08:14:55.640Z,13.10
2022-10-23T08:19:57.900Z,14.50
2022-10-23T08:22:27.662Z,13.20
2022-10-23T08:24:54.600Z,14.30
2022-10-23T08:32:16.644Z,13.20
2022-10-23T08:34:58.385Z,16.10
2022-10-23T08:39:55.954Z,14.20
2022-10-23T08:42:46.517Z,13.90
2022-10-23T08:45:31.876Z,13.40
2022-10-23T08:48:40.704Z,13.60
2022-10-23T08:51:42.183Z,15.70
2022-10-23T08:54:15.785Z,16.80
2022-10-23T08:56:47.080Z,14.20
2022-10-23T08:59:39.958Z,16.00
2022-10-23T09:02:21.846Z,13.80
2022-10-23T09:04:51.917Z,14.90
2022-10-23T09:07:21.307Z,17.40
2022-10-23T09:09:57.092Z,14.10
2022-10-23T09:12:27.631Z,15.30
2022-10-23T09:15:03.561Z,14.70
2022-10-23T09:17:37.863Z,15.40
2022-10-23T09:20:07.586Z,14.30
2022-10-23T09:22:34.293Z,15.40
2022-10-23T09:25:00.950Z,17.70
2022-10-23T09:27:27.680Z,14.80
2022-10-23T09:29:55.817Z,15.70
2022-10-23T09:32:42.875Z,14.50
2022-10-23T09:35:25.088Z,15.00
2022-10-23T09:37:54.924Z,15.70
2022-10-23T09:40:27.164Z,14.90
2022-10-23T09:43:03.970Z,15.40
2022-10-23T09:45:35.106Z,15.60
2022-10-23T09:48:13.204Z,14.50
2022-10-23T09:50:47.467Z,15.40
2022-10-23T09:53:27.072Z,16.00
2022-10-23T09:55:56.889Z,14.40
2022-10-23T09:58:33.699Z,15.90
2022-10-23T10:01:01.031Z,14.60
2022-10-23T10:03:48.958Z,15.50
2022-10-23T10:06:27.278Z,15.20
2022-10-23T10:09:00.016Z,14.30
2022-10-23T10:11:45.568Z,14.60
2022-10-23T10:14:42.425Z,17.50
2022-10-23T10:17:19.079Z,17.30
2022-10-23T10:20:29.087Z,15.40
2022-10-23T10:22:58.841Z,16.30
2022-10-23T10:26:07.967Z,15.00
2022-10-23T10:29:06.974Z,15.00
2022-10-23T10:31:53.852Z,16.00
2022-10-23T10:34:25.686Z,15.00
2022-10-23T10:37:05.842Z,16.00
2022-10-23T10:39:45.880Z,16.00
2022-10-23T10:42:41.376Z,16.50
2022-10-23T10:48:03.880Z,16.30
2022-10-23T10:50:56.349Z,18.40
2022-10-23T10:53:55.456Z,18.00
2022-10-23T10:56:25.077Z,16.00
2022-10-23T10:58:56.511Z,15.40
2022-10-23T11:01:30.637Z,16.10
2022-10-23T11:04:06.691Z,15.70
2022-10-23T11:06:36.024Z,17.80
2022-10-23T11:09:22.351Z,17.20
2022-10-23T11:11:49.296Z,15.50
2022-10-23T11:14:22.692Z,18.50
2022-10-23T11:17:10.383Z,15.60
2022-10-23T11:20:01.028Z,18.80
2022-10-23T11:22:33.393Z,15.50
2022-10-23T11:25:07.864Z,15.50
2022-10-23T11:27:49.756Z,16.10
2022-10-23T11:30:24.765Z,17.10
2022-10-23T11:33:01.357Z,16.90
2022-10-23T11:35:55.962Z,17.10
2022-10-23T11:38:28.997Z,16.10
2022-10-23T11:40:57.116Z,17.40
2022-10-23T11:43:46.709Z,16.20
2022-10-23T11:46:15.252Z,17.70
2022-10-23T11:48:44.138Z,19.20
2022-10-23T11:51:27.074Z,18.00
2022-10-23T11:54:04.678Z,18.30
2022-10-23T11:56:31.532Z,18.50
2022-10-23T11:58:59.351Z,17.90
2022-10-23T12:01:36.038Z,18.80
2022-10-23T12:04:12.277Z,19.40
2022-10-23T12:06:48.324Z,18.90
2022-10-23T12:09:44.116Z,19.10
2022-10-23T12:12:10.712Z,19.10
2022-10-23T12:14:44.625Z,18.10
2022-10-23T12:17:23.371Z,19.10
2022-10-23T12:20:02.363Z,20.40
2022-10-23T12:22:45.215Z,19.10
2022-10-23T12:25:39.001Z,19.20
2022-10-23T12:28:19.680Z,19.10
2022-10-23T12:31:15.378Z,19.10
2022-10-23T12:34:07.779Z,19.10
2022-10-23T12:36:40.466Z,19.10
2022-10-23T12:39:26.207Z,19.00
2022-10-23T12:41:53.067Z,19.00
2022-10-23T12:44:20.120Z,18.70
2022-10-23T12:46:48.888Z,18.90
2022-10-23T12:49:24.800Z,18.90
2022-10-23T12:52:18.845Z,19.00
2022-10-23T12:54:45.623Z,19.10
2022-10-23T12:57:24.061Z,19.10
2022-10-23T12:59:55.264Z,19.00
2022-10-23T13:02:24.179Z,19.00
2022-10-23T13:04:53.422Z,18.00
2022-10-23T13:07:25.336Z,18.90
2022-10-23T13:09:52.941Z,17.00
2022-10-23T13:12:29.849Z,19.10
2022-10-23T13:15:08.911Z,19.20
2022-10-23T13:17:38.518Z,20.00
2022-10-23T13:20:26.424Z,19.20
2022-10-23T13:23:15.512Z,19.20
2022-10-23T13:25:42.333Z,19.20
2022-10-23T13:28:24.955Z,18.00
2022-10-23T13:31:17.711Z,18.70
2022-10-23T13:33:52.553Z,19.10
2022-10-23T13:36:23.221Z,17.90
2022-10-23T13:38:58.977Z,19.40
2022-10-23T13:41:27.502Z,19.50
2022-10-23T13:43:54.180Z,19.60
2022-10-23T13:46:23.247Z,19.70
2022-10-23T13:48:49.985Z,20.50
2022-10-23T13:51:24.196Z,19.90
2022-10-23T13:53:52.707Z,19.90
2022-10-23T13:56:22.865Z,19.90
2022-10-23T13:58:49.810Z,19.90
2022-10-23T14:01:35.945Z,19.90
2022-10-23T14:04:04.324Z,19.80
2022-10-23T14:06:32.290Z,19.90
2022-10-23T14:08:59.170Z,19.80
2022-10-23T14:11:26.546Z,19.80
2022-10-23T14:13:53.187Z,19.70
2022-10-23T14:16:23.365Z,19.50
2022-10-23T14:18:50.395Z,19.40
2022-10-23T14:21:22.523Z,19.50
2022-10-23T14:23:50.253Z,21.10
2022-10-23T14:26:20.482Z,19.50
2022-10-23T14:28:47.237Z,19.60
2022-10-23T14:31:16.743Z,19.80
2022-10-23T14:33:45.088Z,20.00
2022-10-23T14:36:12.737Z,20.50
2022-10-23T14:38:39.495Z,20.30
2022-10-23T14:41:14.154Z,21.30
2022-10-23T14:43:42.528Z,21.10
2022-10-23T14:46:14.994Z,20.80
2022-10-23T14:48:45.463Z,21.20
2022-10-23T14:51:20.742Z,20.10
2022-10-23T14:53:48.412Z,18.70
2022-10-23T14:56:15.912Z,19.60
2022-10-23T14:58:43.246Z,19.30
2022-10-23T15:01:10.693Z,19.20
2022-10-23T15:03:38.228Z,19.30
2022-10-23T15:06:06.462Z,19.20
2022-10-23T15:08:33.510Z,18.80
2022-10-23T15:11:01.673Z,19.60
2022-10-23T15:13:31.226Z,18.90
2022-10-23T15:16:10.016Z,18.70
2022-10-23T15:21:08.475Z,18.50
2022-10-23T15:23:38.175Z,19.50
2022-10-23T15:26:07.956Z,18.30
2022-10-23T15:28:35.479Z,18.20
2022-10-23T15:31:02.230Z,18.10
2022-10-23T15:33:29.356Z,18.20
2022-10-23T15:35:56.481Z,18.10
2022-10-23T15:38:24.420Z,16.90
2022-10-23T15:40:51.776Z,18.00
2022-10-23T15:43:18.414Z,17.20
2022-10-23T15:45:45.681Z,17.90
2022-10-23T15:48:12.691Z,17.80
2022-10-23T15:50:39.377Z,17.80
2022-10-23T15:53:05.992Z,17.40
2022-10-23T15:55:33.473Z,16.70
2022-10-23T15:58:04.003Z,18.80
2022-10-23T16:00:30.843Z,18.00
2022-10-23T16:02:58.113Z,18.50
2022-10-23T16:05:24.791Z,17.80
2022-10-23T16:07:51.383Z,17.60
2022-10-23T16:10:18.707Z,16.30
2022-10-23T16:12:45.754Z,16.30
2022-10-23T16:15:12.638Z,19.20
2022-10-23T16:17:39.224Z,17.50
2022-10-23T16:20:06.494Z,17.30
2022-10-23T16:22:33.172Z,17.50
2022-10-23T16:24:59.773Z,17.40
2022-10-23T16:27:26.516Z,19.10
2022-10-23T16:29:53.159Z,17.50
2022-10-23T16:32:19.846Z,16.20
2022-10-23T16:34:46.423Z,17.40
2022-10-23T16:37:13.076Z,19.10
2022-10-23T16:39:47.740Z,15.80
2022-10-23T16:42:37.871Z,19.70
2022-10-23T16:45:11.811Z,16.20
2022-10-23T16:47:38.402Z,17.40
2022-10-23T16:50:05.395Z,17.40
2022-10-23T16:52:33.217Z,19.20
2022-10-23T16:55:00.091Z,17.30
2022-10-23T16:57:27.926Z,15.90
2022-10-23T16:59:54.814Z,17.40
2022-10-23T17:02:21.572Z,19.40
2022-10-23T17:04:48.463Z,17.30
2022-10-23T17:07:15.171Z,16.30
2022-10-23T17:09:43.776Z,17.20
2022-10-23T17:12:10.455Z,17.20
2022-10-23T17:14:38.181Z,17.20
2022-10-23T17:17:06.763Z,16.40
2022-10-23T17:19:44.530Z,15.50
2022-10-23T17:22:13.151Z,17.20
2022-10-23T17:24:41.300Z,19.20
2022-10-23T17:27:08.346Z,17.20
2022-10-23T17:29:35.195Z,17.10
2022-10-23T17:32:02.631Z,17.10
2022-10-23T17:34:29.499Z,15.90
2022-10-23T17:36:56.624Z,17.00
2022-10-23T17:39:28.227Z,16.90
2022-10-23T17:41:55.375Z,16.10
2022-10-23T17:44:22.323Z,16.90
2022-10-23T17:46:53.679Z,16.90
2022-10-23T17:49:21.728Z,18.90
2022-10-23T17:51:54.802Z,18.70
2022-10-23T17:54:21.900Z,16.80
2022-10-23T17:56:48.588Z,16.80
2022-10-23T17:59:16.063Z,16.70
2022-10-23T18:01:43.831Z,15.70
2022-10-23T18:04:10.700Z,16.70
2022-10-23T18:06:43.054Z,16.80
2022-10-23T18:09:09.837Z,16.30
2022-10-23T18:11:43.857Z,15.20
2022-10-23T18:14:15.809Z,15.70
2022-10-23T18:16:42.726Z,18.00
2022-10-23T18:19:10.720Z,16.00
2022-10-23T18:21:37.953Z,18.90
2022-10-23T18:24:05.027Z,15.90
2022-10-23T18:26:34.861Z,18.90
2022-10-23T18:29:04.131Z,15.80
2022-10-23T18:31:30.945Z,17.10
2022-10-23T18:34:01.284Z,15.90
2022-10-23T18:36:30.645Z,17.00
2022-10-23T18:38:57.900Z,17.10
2022-10-23T18:41:24.834Z,19.30
2022-10-23T18:43:52.932Z,16.10
2022-10-23T18:46:20.472Z,17.30
2022-10-23T18:48:47.979Z,19.20
2022-10-23T18:51:18.916Z,17.30
2022-10-23T18:53:46.700Z,17.30
2022-10-23T18:56:22.383Z,15.10
2022-10-23T18:59:03.631Z,17.40
2022-10-23T19:01:31.323Z,17.40
2022-10-23T19:04:00.215Z,16.30
2022-10-23T19:06:28.100Z,19.70
2022-10-23T19:08:54.923Z,17.30
2022-10-23T19:11:23.859Z,19.50
2022-10-23T19:13:50.750Z,17.10
2022-10-23T19:16:33.523Z,16.10
2022-10-23T19:19:20.762Z,15.90
2022-10-23T19:21:48.331Z,17.10
2022-10-23T19:24:20.325Z,17.20
2022-10-23T19:26:47.495Z,17.10
2022-10-23T19:29:18.988Z,17.10
2022-10-23T19:31:49.198Z,19.10
2022-10-23T19:34:19.835Z,17.00
2022-10-23T19:36:48.006Z,17.30
2022-10-23T19:39:14.735Z,17.10
2022-10-23T19:41:41.418Z,17.00
2022-10-23T19:44:08.217Z,17.80
2022-10-23T19:46:38.381Z,16.90
2022-10-23T19:49:05.891Z,15.80
2022-10-23T19:51:33.074Z,15.70
2022-10-23T19:54:00.365Z,16.60
2022-10-23T19:56:27.521Z,16.10
2022-10-23T19:58:54.294Z,16.80
2022-10-23T20:01:24.325Z,14.40
2022-10-23T20:03:51.317Z,16.70
2022-10-23T20:06:21.155Z,15.60
2022-10-23T20:08:48.426Z,17.80
2022-10-23T20:11:36.181Z,16.50
2022-10-23T20:14:03.588Z,14.90
2022-10-23T20:16:35.899Z,16.70
2022-10-23T20:19:06.750Z,17.80
2022-10-23T20:21:36.464Z,17.00
2022-10-23T20:24:03.181Z,15.30
2022-10-23T20:26:29.746Z,16.30
2022-10-23T20:28:57.433Z,15.40
2022-10-23T20:31:26.284Z,18.40
2022-10-23T20:33:54.221Z,16.80
2022-10-23T20:36:24.563Z,16.20
2022-10-23T20:38:51.955Z,15.30
2022-10-23T20:41:18.813Z,15.20
2022-10-23T20:43:45.925Z,16.10
2022-10-23T20:46:12.795Z,15.70
2022-10-23T20:48:41.757Z,16.50
2022-10-23T20:51:11.296Z,17.40
2022-10-23T20:53:38.638Z,17.40
2022-10-23T20:56:10.325Z,14.90
2022-10-23T20:58:37.056Z,14.60
2022-10-23T21:01:04.762Z,15.90
2022-10-23T21:03:31.631Z,15.90
2022-10-23T21:06:05.672Z,16.10
2022-10-23T21:08:32.541Z,14.80
2022-10-23T21:10:59.604Z,14.90
2022-10-23T21:13:28.743Z,15.90
2022-10-23T21:15:55.948Z,14.80
2022-10-23T21:18:34.216Z,14.80
2022-10-23T21:21:12.640Z,16.30
2022-10-23T21:23:39.743Z,16.20
2022-10-23T21:26:07.577Z,15.70
2022-10-23T21:28:34.976Z,15.60
2022-10-23T21:31:03.647Z,16.30
2022-10-23T21:33:30.792Z,14.60
2022-10-23T21:36:04.814Z,14.60
2022-10-23T21:38:39.805Z,16.20
2022-10-23T21:41:13.759Z,14.50
2022-10-23T21:43:40.919Z,15.60
2022-10-23T21:46:12.523Z,17.30
2022-10-23T21:48:39.699Z,14.60
2022-10-23T21:51:07.271Z,17.70
2022-10-23T21:53:33.892Z,15.80
2022-10-23T21:56:04.204Z,14.80
2022-10-23T21:58:31.580Z,14.60
2022-10-23T22:00:58.545Z,15.80
2022-10-23T22:03:25.385Z,15.90
2022-10-23T22:05:52.002Z,15.80
2022-10-23T22:08:18.641Z,14.90
2022-10-23T22:10:45.278Z,15.90
2022-10-23T22:13:11.978Z,16.00
2022-10-23T22:15:38.662Z,17.80
2022-10-23T22:18:05.301Z,16.00
2022-10-23T22:20:31.940Z,14.90
2022-10-23T22:22:58.631Z,14.90
2022-10-23T22:25:25.368Z,15.90
2022-10-23T22:27:52.279Z,14.90
2022-10-23T22:30:18.921Z,14.80
2022-10-23T22:32:45.834Z,14.60
2022-10-23T22:35:12.739Z,14.50
2022-10-23T22:37:39.370Z,14.20
2022-10-23T22:40:07.349Z,15.60
2022-10-23T22:42:34.072Z,14.50
2022-10-23T22:45:00.691Z,14.40
2022-10-23T22:47:29.256Z,14.70
2022-10-23T22:52:23.031Z,14.70
2022-10-23T22:54:49.654Z,15.00
2022-10-23T22:57:16.453Z,14.70
2022-10-23T22:59:43.164Z,14.70
2022-10-23T23:02:09.992Z,16.60
2022-10-23T23:04:38.176Z,15.80
2022-10-23T23:07:08.093Z,16.50
2022-10-23T23:09:39.512Z,15.70
2022-10-23T23:12:07.689Z,15.80
2022-10-23T23:17:01.861Z,15.80
2022-10-23T23:19:28.528Z,15.80
2022-10-23T23:21:56.963Z,17.10
2022-10-23T23:24:24.292Z,15.50
2022-10-23T23:26:51.082Z,15.80
2022-10-23T23:29:18.011Z,15.60
2022-10-23T23:31:44.832Z,14.30
2022-10-23T23:34:11.414Z,15.30
2022-10-23T23:36:38.272Z,15.40
2022-10-23T23:41:37.333Z,17.00
2022-10-23T23:44:04.423Z,15.30
2022-10-23T23:46:31.101Z,14.30
2022-10-23T23:48:57.718Z,15.30
2022-10-23T23:51:26.026Z,17.60
2022-10-23T23:53:53.090Z,14.50
2022-10-23T23:56:20.450Z,15.30
2022-10-23T23:58:47.134Z,17.10
